sensor_id;sensor_type;location;lat;lon;timestamp;temperature;humidity
7366;DHT22;3723;52.220;8.792;2024-01-30T00:01:09;0.20;1.00
7366;DHT22;3723;52.220;8.792;2024-01-30T00:03:36;0.10;1.00
7366;DHT22;3723;52.220;8.792;2024-01-30T00:06:03;0.10;1.00
7366;DHT22;3723;52.220;8.792;2024-01-30T00:08:30;0.00;1.00
7366;DHT22;3723;52.220;8.792;2024-01-30T00:10:59;-0.10;1.00
7366;DHT22;3723;52.220;8.792;2024-01-30T00:13:26;-0.10;1.00
7366;DHT22;3723;52.220;8.792;2024-01-30T00:15:53;-0.30;1.00
7366;DHT22;3723;52.220;8.792;2024-01-30T00:18:20;-0.30;1.00
7366;DHT22;3723;52.220;8.792;2024-01-30T00:20:47;-0.30;1.00
7366;DHT22;3723;52.220;8.792;2024-01-30T00:23:13;-0.30;1.00
7366;DHT22;3723;52.220;8.792;2024-01-30T00:25:40;-0.40;1.00
7366;DHT22;3723;52.220;8.792;2024-01-30T00:28:09;-0.40;1.00
7366;DHT22;3723;52.220;8.792;2024-01-30T00:30:35;-0.40;1.00
7366;DHT22;3723;52.220;8.792;2024-01-30T00:33:02;-0.40;1.00
7366;DHT22;3723;52.220;8.792;2024-01-30T00:35:29;-0.50;1.00
7366;DHT22;3723;52.220;8.792;2024-01-30T00:37:56;-0.50;1.00
7366;DHT22;3723;52.220;8.792;2024-01-30T00:40:23;-0.60;1.00
7366;DHT22;3723;52.220;8.792;2024-01-30T00:42:50;-0.60;1.00
7366;DHT22;3723;52.220;8.792;2024-01-30T00:45:19;-0.60;1.00
7366;DHT22;3723;52.220;8.792;2024-01-30T00:47:46;-0.60;1.00
7366;DHT22;3723;52.220;8.792;2024-01-30T00:50:13;-0.60;1.00
7366;DHT22;3723;52.220;8.792;2024-01-30T00:52:40;-0.50;1.00
7366;DHT22;3723;52.220;8.792;2024-01-30T00:55:07;-0.50;1.90
7366;DHT22;3723;52.220;8.792;2024-01-30T00:57:34;-0.50;20.50
7366;DHT22;3723;52.220;8.792;2024-01-30T01:00:01;-0.50;38.60
7366;DHT22;3723;52.220;8.792;2024-01-30T01:02:30;-0.50;75.50
7366;DHT22;3723;52.220;8.792;2024-01-30T01:04:57;-0.50;96.30
7366;DHT22;3723;52.220;8.792;2024-01-30T01:07:24;-0.50;99.90
7366;DHT22;3723;52.220;8.792;2024-01-30T01:09:51;-0.50;99.90
7366;DHT22;3723;52.220;8.792;2024-01-30T01:12:18;-0.50;99.90
7366;DHT22;3723;52.220;8.792;2024-01-30T01:14:45;-0.50;99.90
7366;DHT22;3723;52.220;8.792;2024-01-30T01:17:12;-0.50;99.90
7366;DHT22;3723;52.220;8.792;2024-01-30T01:19:40;-0.60;99.90
7366;DHT22;3723;52.220;8.792;2024-01-30T01:22:07;-0.50;99.90
7366;DHT22;3723;52.220;8.792;2024-01-30T01:24:34;-0.60;99.90
7366;DHT22;3723;52.220;8.792;2024-01-30T01:27:01;-0.60;99.90
7366;DHT22;3723;52.220;8.792;2024-01-30T01:29:27;-0.50;99.90
7366;DHT22;3723;52.220;8.792;2024-01-30T01:31:55;-0.60;99.90
7366;DHT22;3723;52.220;8.792;2024-01-30T01:34:22;-0.60;99.90
7366;DHT22;3723;52.220;8.792;2024-01-30T01:36:51;-0.60;99.90
7366;DHT22;3723;52.220;8.792;2024-01-30T01:39:21;-0.60;99.90
7366;DHT22;3723;52.220;8.792;2024-01-30T01:41:49;-0.50;99.90
7366;DHT22;3723;52.220;8.792;2024-01-30T01:44:17;-0.50;99.90
7366;DHT22;3723;52.220;8.792;2024-01-30T01:46:44;-0.50;99.90
7366;DHT22;3723;52.220;8.792;2024-01-30T01:49:11;-0.50;99.90
7366;DHT22;3723;52.220;8.792;2024-01-30T01:51:38;-0.50;99.90
7366;DHT22;3723;52.220;8.792;2024-01-30T01:54:08;-0.60;99.90
7366;DHT22;3723;52.220;8.792;2024-01-30T01:56:35;-0.60;99.90
7366;DHT22;3723;52.220;8.792;2024-01-30T01:59:05;-0.60;99.90
7366;DHT22;3723;52.220;8.792;2024-01-30T02:01:34;-0.50;99.90
7366;DHT22;3723;52.220;8.792;2024-01-30T02:04:00;-0.50;99.90
7366;DHT22;3723;52.220;8.792;2024-01-30T02:06:28;-0.50;99.90
7366;DHT22;3723;52.220;8.792;2024-01-30T02:08:55;-0.50;99.90
7366;DHT22;3723;52.220;8.792;2024-01-30T02:11:24;-0.50;99.90
7366;DHT22;3723;52.220;8.792;2024-01-30T02:13:51;-0.50;99.90
7366;DHT22;3723;52.220;8.792;2024-01-30T02:16:18;-0.50;99.90
7366;DHT22;3723;52.220;8.792;2024-01-30T02:18:45;-0.60;99.90
7366;DHT22;3723;52.220;8.792;2024-01-30T02:21:15;-0.60;99.90
7366;DHT22;3723;52.220;8.792;2024-01-30T02:23:43;-0.50;99.90
7366;DHT22;3723;52.220;8.792;2024-01-30T02:26:11;-0.50;99.90
7366;DHT22;3723;52.220;8.792;2024-01-30T02:28:38;-0.50;99.90
7366;DHT22;3723;52.220;8.792;2024-01-30T02:31:05;-0.60;99.90
7366;DHT22;3723;52.220;8.792;2024-01-30T02:33:32;-0.60;99.90
7366;DHT22;3723;52.220;8.792;2024-01-30T02:35:59;-0.70;99.90
7366;DHT22;3723;52.220;8.792;2024-01-30T02:38:27;-0.70;99.90
7366;DHT22;3723;52.220;8.792;2024-01-30T02:40:54;-0.80;99.90
7366;DHT22;3723;52.220;8.792;2024-01-30T02:43:21;-0.90;99.90
7366;DHT22;3723;52.220;8.792;2024-01-30T02:45:48;-0.90;99.90
7366;DHT22;3723;52.220;8.792;2024-01-30T02:48:15;-1.00;99.90
7366;DHT22;3723;52.220;8.792;2024-01-30T02:50:42;-1.00;99.90
7366;DHT22;3723;52.220;8.792;2024-01-30T02:53:09;-1.00;99.90
7366;DHT22;3723;52.220;8.792;2024-01-30T02:55:37;-1.10;99.90
7366;DHT22;3723;52.220;8.792;2024-01-30T02:58:04;-1.10;99.90
7366;DHT22;3723;52.220;8.792;2024-01-30T03:00:31;-1.10;99.90
7366;DHT22;3723;52.220;8.792;2024-01-30T03:02:58;-1.20;99.90
7366;DHT22;3723;52.220;8.792;2024-01-30T03:05:26;-1.10;99.90
7366;DHT22;3723;52.220;8.792;2024-01-30T03:07:53;-1.10;99.90
7366;DHT22;3723;52.220;8.792;2024-01-30T03:10:20;-1.10;99.90
7366;DHT22;3723;52.220;8.792;2024-01-30T03:12:48;-1.10;99.90
7366;DHT22;3723;52.220;8.792;2024-01-30T03:15:15;-1.00;99.90
7366;DHT22;3723;52.220;8.792;2024-01-30T03:17:41;-1.00;99.90
7366;DHT22;3723;52.220;8.792;2024-01-30T03:20:09;-1.00;99.90
7366;DHT22;3723;52.220;8.792;2024-01-30T03:22:36;-1.10;99.90
7366;DHT22;3723;52.220;8.792;2024-01-30T03:25:03;-1.10;99.90
7366;DHT22;3723;52.220;8.792;2024-01-30T03:27:31;-1.00;99.90
7366;DHT22;3723;52.220;8.792;2024-01-30T03:30:00;-0.80;99.90
7366;DHT22;3723;52.220;8.792;2024-01-30T03:32:27;-0.80;99.90
7366;DHT22;3723;52.220;8.792;2024-01-30T03:34:54;-0.80;99.90
7366;DHT22;3723;52.220;8.792;2024-01-30T03:37:22;-0.80;99.90
7366;DHT22;3723;52.220;8.792;2024-01-30T03:39:49;-0.80;99.90
7366;DHT22;3723;52.220;8.792;2024-01-30T03:42:15;-0.80;99.90
7366;DHT22;3723;52.220;8.792;2024-01-30T03:44:43;-0.70;99.90
7366;DHT22;3723;52.220;8.792;2024-01-30T03:47:11;-0.80;99.90
7366;DHT22;3723;52.220;8.792;2024-01-30T03:49:38;-0.80;99.90
7366;DHT22;3723;52.220;8.792;2024-01-30T03:52:05;-0.80;99.90
7366;DHT22;3723;52.220;8.792;2024-01-30T03:54:31;-0.90;99.90
7366;DHT22;3723;52.220;8.792;2024-01-30T03:56:58;-0.80;99.90
7366;DHT22;3723;52.220;8.792;2024-01-30T03:59:25;-0.80;99.90
7366;DHT22;3723;52.220;8.792;2024-01-30T04:01:52;-0.90;99.90
7366;DHT22;3723;52.220;8.792;2024-01-30T04:04:20;-0.90;99.90
7366;DHT22;3723;52.220;8.792;2024-01-30T04:06:47;-0.90;99.90
7366;DHT22;3723;52.220;8.792;2024-01-30T04:09:13;-0.90;99.90
7366;DHT22;3723;52.220;8.792;2024-01-30T04:11:41;-0.80;99.90
7366;DHT22;3723;52.220;8.792;2024-01-30T04:14:08;-0.90;99.90
7366;DHT22;3723;52.220;8.792;2024-01-30T04:16:35;-0.90;99.90
7366;DHT22;3723;52.220;8.792;2024-01-30T04:19:02;-0.90;99.90
7366;DHT22;3723;52.220;8.792;2024-01-30T04:21:30;-0.90;99.90
7366;DHT22;3723;52.220;8.792;2024-01-30T04:23:58;-0.90;99.90
7366;DHT22;3723;52.220;8.792;2024-01-30T04:26:25;-0.90;99.90
7366;DHT22;3723;52.220;8.792;2024-01-30T04:28:51;-1.00;99.90
7366;DHT22;3723;52.220;8.792;2024-01-30T04:31:18;-1.00;99.90
7366;DHT22;3723;52.220;8.792;2024-01-30T04:33:45;-1.00;99.90
7366;DHT22;3723;52.220;8.792;2024-01-30T04:36:12;-1.10;99.90
7366;DHT22;3723;52.220;8.792;2024-01-30T04:38:40;-1.10;99.90
7366;DHT22;3723;52.220;8.792;2024-01-30T04:41:07;-1.20;99.90
7366;DHT22;3723;52.220;8.792;2024-01-30T04:43:34;-1.20;99.90
7366;DHT22;3723;52.220;8.792;2024-01-30T04:46:01;-1.20;99.90
7366;DHT22;3723;52.220;8.792;2024-01-30T04:48:28;-1.30;99.90
7366;DHT22;3723;52.220;8.792;2024-01-30T04:50:55;-1.20;99.90
7366;DHT22;3723;52.220;8.792;2024-01-30T04:53:22;-1.30;99.90
7366;DHT22;3723;52.220;8.792;2024-01-30T04:55:51;-1.20;99.90
7366;DHT22;3723;52.220;8.792;2024-01-30T04:58:17;-1.10;99.90
7366;DHT22;3723;52.220;8.792;2024-01-30T05:00:44;-1.00;99.90
7366;DHT22;3723;52.220;8.792;2024-01-30T05:03:11;-1.00;99.90
7366;DHT22;3723;52.220;8.792;2024-01-30T05:05:38;-1.00;99.90
7366;DHT22;3723;52.220;8.792;2024-01-30T05:08:05;-0.90;99.90
7366;DHT22;3723;52.220;8.792;2024-01-30T05:10:32;-1.00;99.90
7366;DHT22;3723;52.220;8.792;2024-01-30T05:13:01;-1.00;99.90
7366;DHT22;3723;52.220;8.792;2024-01-30T05:15:28;-1.00;99.90
7366;DHT22;3723;52.220;8.792;2024-01-30T05:17:55;-1.10;99.90
7366;DHT22;3723;52.220;8.792;2024-01-30T05:20:22;-1.10;99.90
7366;DHT22;3723;52.220;8.792;2024-01-30T05:22:48;-1.10;99.90
7366;DHT22;3723;52.220;8.792;2024-01-30T05:25:15;-1.00;99.90
7366;DHT22;3723;52.220;8.792;2024-01-30T05:27:42;-1.10;99.90
7366;DHT22;3723;52.220;8.792;2024-01-30T05:30:12;-1.10;99.90
7366;DHT22;3723;52.220;8.792;2024-01-30T05:32:39;-1.10;99.90
7366;DHT22;3723;52.220;8.792;2024-01-30T05:35:06;-1.10;99.90
7366;DHT22;3723;52.220;8.792;2024-01-30T05:37:33;-1.10;99.90
7366;DHT22;3723;52.220;8.792;2024-01-30T05:40:00;-1.00;99.90
7366;DHT22;3723;52.220;8.792;2024-01-30T05:42:27;-0.90;1.00
7366;DHT22;3723;52.220;8.792;2024-01-30T05:44:54;-0.90;1.00
7366;DHT22;3723;52.220;8.792;2024-01-30T05:47:22;-0.90;1.00
7366;DHT22;3723;52.220;8.792;2024-01-30T05:49:49;-0.80;1.00
7366;DHT22;3723;52.220;8.792;2024-01-30T05:52:16;-0.80;1.00
7366;DHT22;3723;52.220;8.792;2024-01-30T05:54:44;-0.70;1.00
7366;DHT22;3723;52.220;8.792;2024-01-30T05:57:11;-0.70;1.00
7366;DHT22;3723;52.220;8.792;2024-01-30T05:59:38;-0.70;1.00
7366;DHT22;3723;52.220;8.792;2024-01-30T06:02:05;-0.70;1.00
7366;DHT22;3723;52.220;8.792;2024-01-30T06:04:33;-0.70;1.00
7366;DHT22;3723;52.220;8.792;2024-01-30T06:07:00;-0.70;1.00
7366;DHT22;3723;52.220;8.792;2024-01-30T06:09:27;-0.70;1.00
7366;DHT22;3723;52.220;8.792;2024-01-30T06:11:55;-0.60;1.00
7366;DHT22;3723;52.220;8.792;2024-01-30T06:14:21;-0.60;1.00
7366;DHT22;3723;52.220;8.792;2024-01-30T06:16:48;-0.50;1.00
7366;DHT22;3723;52.220;8.792;2024-01-30T06:19:15;-0.50;1.00
7366;DHT22;3723;52.220;8.792;2024-01-30T06:21:44;-0.50;1.00
7366;DHT22;3723;52.220;8.792;2024-01-30T06:24:11;-0.40;1.00
7366;DHT22;3723;52.220;8.792;2024-01-30T06:26:38;-0.40;1.00
7366;DHT22;3723;52.220;8.792;2024-01-30T06:29:04;-0.30;1.00
7366;DHT22;3723;52.220;8.792;2024-01-30T06:31:31;-0.30;1.00
7366;DHT22;3723;52.220;8.792;2024-01-30T06:33:58;-0.30;1.00
7366;DHT22;3723;52.220;8.792;2024-01-30T06:36:25;-0.30;1.00
7366;DHT22;3723;52.220;8.792;2024-01-30T06:38:53;-0.20;1.00
7366;DHT22;3723;52.220;8.792;2024-01-30T06:41:20;-0.10;1.00
7366;DHT22;3723;52.220;8.792;2024-01-30T06:43:47;0.00;1.00
7366;DHT22;3723;52.220;8.792;2024-01-30T06:46:14;0.10;1.00
7366;DHT22;3723;52.220;8.792;2024-01-30T06:48:40;0.10;1.00
7366;DHT22;3723;52.220;8.792;2024-01-30T06:51:10;0.20;1.00
7366;DHT22;3723;52.220;8.792;2024-01-30T06:53:37;0.30;1.00
7366;DHT22;3723;52.220;8.792;2024-01-30T06:56:06;0.40;1.00
7366;DHT22;3723;52.220;8.792;2024-01-30T06:58:33;0.60;20.30
7366;DHT22;3723;52.220;8.792;2024-01-30T07:01:00;0.80;36.90
7366;DHT22;3723;52.220;8.792;2024-01-30T07:03:27;0.90;58.70
7366;DHT22;3723;52.220;8.792;2024-01-30T07:05:54;0.90;76.60
7366;DHT22;3723;52.220;8.792;2024-01-30T07:08:21;0.80;83.40
7366;DHT22;3723;52.220;8.792;2024-01-30T07:10:48;0.80;82.00
7366;DHT22;3723;52.220;8.792;2024-01-30T07:13:17;0.70;76.00
7366;DHT22;3723;52.220;8.792;2024-01-30T07:15:44;0.60;73.20
7366;DHT22;3723;52.220;8.792;2024-01-30T07:18:11;0.60;72.70
7366;DHT22;3723;52.220;8.792;2024-01-30T07:20:39;0.70;1.00
7366;DHT22;3723;52.220;8.792;2024-01-30T07:23:11;0.80;1.00
7366;DHT22;3723;52.220;8.792;2024-01-30T07:25:39;0.90;1.00
7366;DHT22;3723;52.220;8.792;2024-01-30T07:28:07;1.00;1.00
7366;DHT22;3723;52.220;8.792;2024-01-30T07:30:36;1.10;1.00
7366;DHT22;3723;52.220;8.792;2024-01-30T07:33:03;1.20;1.00
7366;DHT22;3723;52.220;8.792;2024-01-30T07:35:30;1.30;1.00
7366;DHT22;3723;52.220;8.792;2024-01-30T07:37:57;1.40;1.00
7366;DHT22;3723;52.220;8.792;2024-01-30T07:40:24;1.40;4.00
7366;DHT22;3723;52.220;8.792;2024-01-30T07:42:52;1.40;7.20
7366;DHT22;3723;52.220;8.792;2024-01-30T07:45:19;1.40;7.70
7366;DHT22;3723;52.220;8.792;2024-01-30T07:47:49;1.30;5.40
7366;DHT22;3723;52.220;8.792;2024-01-30T07:50:16;1.30;6.20
7366;DHT22;3723;52.220;8.792;2024-01-30T07:52:44;1.40;8.80
7366;DHT22;3723;52.220;8.792;2024-01-30T07:55:11;1.40;10.90
7366;DHT22;3723;52.220;8.792;2024-01-30T07:57:38;1.50;15.20
7366;DHT22;3723;52.220;8.792;2024-01-30T08:00:06;1.50;20.50
7366;DHT22;3723;52.220;8.792;2024-01-30T08:02:33;1.60;25.30
7366;DHT22;3723;52.220;8.792;2024-01-30T08:05:02;1.60;28.90
7366;DHT22;3723;52.220;8.792;2024-01-30T08:07:29;1.70;35.10
7366;DHT22;3723;52.220;8.792;2024-01-30T08:09:56;1.70;42.30
7366;DHT22;3723;52.220;8.792;2024-01-30T08:12:24;1.80;47.90
7366;DHT22;3723;52.220;8.792;2024-01-30T08:14:51;1.90;57.70
7366;DHT22;3723;52.220;8.792;2024-01-30T08:17:18;2.00;72.20
7366;DHT22;3723;52.220;8.792;2024-01-30T08:19:45;2.10;85.80
7366;DHT22;3723;52.220;8.792;2024-01-30T08:22:13;2.20;93.40
7366;DHT22;3723;52.220;8.792;2024-01-30T08:24:41;2.40;98.60
7366;DHT22;3723;52.220;8.792;2024-01-30T08:27:08;2.40;99.90
7366;DHT22;3723;52.220;8.792;2024-01-30T08:29:35;2.60;99.90
7366;DHT22;3723;52.220;8.792;2024-01-30T08:32:03;2.70;99.90
7366;DHT22;3723;52.220;8.792;2024-01-30T08:34:30;2.80;99.90
7366;DHT22;3723;52.220;8.792;2024-01-30T08:36:57;2.90;99.90
7366;DHT22;3723;52.220;8.792;2024-01-30T08:39:25;3.00;99.90
7366;DHT22;3723;52.220;8.792;2024-01-30T08:41:52;3.10;99.90
7366;DHT22;3723;52.220;8.792;2024-01-30T08:44:19;3.20;99.90
7366;DHT22;3723;52.220;8.792;2024-01-30T08:46:51;3.50;99.90
7366;DHT22;3723;52.220;8.792;2024-01-30T08:49:20;3.50;99.90
7366;DHT22;3723;52.220;8.792;2024-01-30T08:51:47;3.70;99.90
7366;DHT22;3723;52.220;8.792;2024-01-30T08:54:15;3.80;99.90
7366;DHT22;3723;52.220;8.792;2024-01-30T08:56:44;3.90;99.90
7366;DHT22;3723;52.220;8.792;2024-01-30T08:59:13;3.90;99.90
7366;DHT22;3723;52.220;8.792;2024-01-30T09:01:40;4.10;99.90
7366;DHT22;3723;52.220;8.792;2024-01-30T09:04:07;4.20;99.90
7366;DHT22;3723;52.220;8.792;2024-01-30T09:06:34;4.40;99.90
7366;DHT22;3723;52.220;8.792;2024-01-30T09:09:02;4.40;99.90
7366;DHT22;3723;52.220;8.792;2024-01-30T09:11:30;4.60;99.90
7366;DHT22;3723;52.220;8.792;2024-01-30T09:13:58;4.60;99.90
7366;DHT22;3723;52.220;8.792;2024-01-30T09:16:25;4.80;99.90
7366;DHT22;3723;52.220;8.792;2024-01-30T09:18:52;4.90;99.90
7366;DHT22;3723;52.220;8.792;2024-01-30T09:21:19;5.00;99.90
7366;DHT22;3723;52.220;8.792;2024-01-30T09:23:53;5.20;99.90
7366;DHT22;3723;52.220;8.792;2024-01-30T09:26:21;5.40;99.90
7366;DHT22;3723;52.220;8.792;2024-01-30T09:28:48;5.60;99.90
7366;DHT22;3723;52.220;8.792;2024-01-30T09:31:17;5.70;99.90
7366;DHT22;3723;52.220;8.792;2024-01-30T09:33:43;5.80;99.90
7366;DHT22;3723;52.220;8.792;2024-01-30T09:36:13;5.90;99.90
7366;DHT22;3723;52.220;8.792;2024-01-30T09:38:40;6.10;99.90
7366;DHT22;3723;52.220;8.792;2024-01-30T09:41:09;6.30;99.90
7366;DHT22;3723;52.220;8.792;2024-01-30T09:43:38;6.40;99.90
7366;DHT22;3723;52.220;8.792;2024-01-30T09:46:05;6.70;99.90
7366;DHT22;3723;52.220;8.792;2024-01-30T09:48:36;7.00;99.90
7366;DHT22;3723;52.220;8.792;2024-01-30T09:51:03;7.10;99.90
7366;DHT22;3723;52.220;8.792;2024-01-30T09:53:31;7.20;99.90
7366;DHT22;3723;52.220;8.792;2024-01-30T09:55:58;7.30;99.90
7366;DHT22;3723;52.220;8.792;2024-01-30T09:58:25;7.40;99.90
7366;DHT22;3723;52.220;8.792;2024-01-30T10:00:52;7.60;99.90
7366;DHT22;3723;52.220;8.792;2024-01-30T10:03:19;7.70;99.90
7366;DHT22;3723;52.220;8.792;2024-01-30T10:05:50;7.80;99.90
7366;DHT22;3723;52.220;8.792;2024-01-30T10:08:18;7.90;99.90
7366;DHT22;3723;52.220;8.792;2024-01-30T10:10:46;8.00;99.90
7366;DHT22;3723;52.220;8.792;2024-01-30T10:13:13;8.10;99.90
7366;DHT22;3723;52.220;8.792;2024-01-30T10:15:41;8.30;99.90
7366;DHT22;3723;52.220;8.792;2024-01-30T10:18:08;8.40;99.90
7366;DHT22;3723;52.220;8.792;2024-01-30T10:20:36;8.40;93.60
7366;DHT22;3723;52.220;8.792;2024-01-30T10:23:04;8.40;1.00
7366;DHT22;3723;52.220;8.792;2024-01-30T10:25:31;8.40;1.00
7366;DHT22;3723;52.220;8.792;2024-01-30T10:27:59;8.40;1.00
7366;DHT22;3723;52.220;8.792;2024-01-30T10:30:27;8.40;1.00
7366;DHT22;3723;52.220;8.792;2024-01-30T10:32:54;8.40;99.90
7366;DHT22;3723;52.220;8.792;2024-01-30T10:35:21;8.50;99.90
7366;DHT22;3723;52.220;8.792;2024-01-30T10:37:48;8.60;99.90
7366;DHT22;3723;52.220;8.792;2024-01-30T10:40:16;8.70;99.90
7366;DHT22;3723;52.220;8.792;2024-01-30T10:42:49;8.90;99.90
7366;DHT22;3723;52.220;8.792;2024-01-30T10:45:22;9.00;99.90
7366;DHT22;3723;52.220;8.792;2024-01-30T10:47:49;9.30;99.90
7366;DHT22;3723;52.220;8.792;2024-01-30T10:50:16;9.70;99.90
7366;DHT22;3723;52.220;8.792;2024-01-30T10:52:43;10.20;99.90
7366;DHT22;3723;52.220;8.792;2024-01-30T10:55:11;10.60;1.00
7366;DHT22;3723;52.220;8.792;2024-01-30T10:57:39;10.90;1.00
7366;DHT22;3723;52.220;8.792;2024-01-30T11:00:09;11.20;99.90
7366;DHT22;3723;52.220;8.792;2024-01-30T11:02:37;11.50;99.90
7366;DHT22;3723;52.220;8.792;2024-01-30T11:05:05;11.90;99.90
7366;DHT22;3723;52.220;8.792;2024-01-30T11:07:34;12.20;33.70
7366;DHT22;3723;52.220;8.792;2024-01-30T11:10:03;12.50;1.00
7366;DHT22;3723;52.220;8.792;2024-01-30T11:12:31;12.80;1.00
7366;DHT22;3723;52.220;8.792;2024-01-30T11:15:06;13.10;1.00
7366;DHT22;3723;52.220;8.792;2024-01-30T11:17:42;13.60;1.00
7366;DHT22;3723;52.220;8.792;2024-01-30T11:20:11;14.00;1.00
7366;DHT22;3723;52.220;8.792;2024-01-30T11:22:41;14.40;1.00
7366;DHT22;3723;52.220;8.792;2024-01-30T11:25:12;14.50;1.00
7366;DHT22;3723;52.220;8.792;2024-01-30T11:27:39;14.70;1.00
7366;DHT22;3723;52.220;8.792;2024-01-30T11:30:08;14.80;1.00
7366;DHT22;3723;52.220;8.792;2024-01-30T11:32:35;14.80;1.00
7366;DHT22;3723;52.220;8.792;2024-01-30T11:35:03;14.80;1.00
7366;DHT22;3723;52.220;8.792;2024-01-30T11:37:32;14.70;1.00
7366;DHT22;3723;52.220;8.792;2024-01-30T11:39:59;14.50;1.00
7366;DHT22;3723;52.220;8.792;2024-01-30T11:42:26;14.20;1.00
7366;DHT22;3723;52.220;8.792;2024-01-30T11:44:53;14.10;1.00
7366;DHT22;3723;52.220;8.792;2024-01-30T11:47:22;13.90;1.00
7366;DHT22;3723;52.220;8.792;2024-01-30T11:49:49;13.80;1.00
7366;DHT22;3723;52.220;8.792;2024-01-30T11:52:17;13.80;1.00
7366;DHT22;3723;52.220;8.792;2024-01-30T11:54:43;13.80;1.00
7366;DHT22;3723;52.220;8.792;2024-01-30T11:57:10;13.70;1.00
7366;DHT22;3723;52.220;8.792;2024-01-30T11:59:37;13.60;1.00
7366;DHT22;3723;52.220;8.792;2024-01-30T12:02:04;13.60;1.00
7366;DHT22;3723;52.220;8.792;2024-01-30T12:04:32;13.70;1.00
7366;DHT22;3723;52.220;8.792;2024-01-30T12:06:59;13.70;1.00
7366;DHT22;3723;52.220;8.792;2024-01-30T12:09:26;13.80;1.00
7366;DHT22;3723;52.220;8.792;2024-01-30T12:11:53;13.80;1.00
7366;DHT22;3723;52.220;8.792;2024-01-30T12:14:20;13.80;1.00
7366;DHT22;3723;52.220;8.792;2024-01-30T12:16:51;13.80;1.00
7366;DHT22;3723;52.220;8.792;2024-01-30T12:19:22;13.90;1.00
7366;DHT22;3723;52.220;8.792;2024-01-30T12:21:56;13.90;1.00
7366;DHT22;3723;52.220;8.792;2024-01-30T12:24:24;13.90;1.00
7366;DHT22;3723;52.220;8.792;2024-01-30T12:26:51;13.80;1.00
7366;DHT22;3723;52.220;8.792;2024-01-30T12:29:46;13.80;1.00
7366;DHT22;3723;52.220;8.792;2024-01-30T12:32:15;13.80;99.90
7366;DHT22;3723;52.220;8.792;2024-01-30T12:34:42;13.60;99.90
7366;DHT22;3723;52.220;8.792;2024-01-30T12:37:10;13.40;99.90
7366;DHT22;3723;52.220;8.792;2024-01-30T12:39:39;13.20;99.90
7366;DHT22;3723;52.220;8.792;2024-01-30T12:42:27;13.20;99.90
7366;DHT22;3723;52.220;8.792;2024-01-30T12:44:54;13.00;99.90
7366;DHT22;3723;52.220;8.792;2024-01-30T12:47:21;12.90;99.90
7366;DHT22;3723;52.220;8.792;2024-01-30T12:49:50;12.80;99.90
7366;DHT22;3723;52.220;8.792;2024-01-30T12:52:21;12.80;99.90
7366;DHT22;3723;52.220;8.792;2024-01-30T12:54:49;12.70;99.90
7366;DHT22;3723;52.220;8.792;2024-01-30T12:57:16;12.70;99.90
7366;DHT22;3723;52.220;8.792;2024-01-30T12:59:44;12.60;99.90
7366;DHT22;3723;52.220;8.792;2024-01-30T13:02:12;12.50;99.90
7366;DHT22;3723;52.220;8.792;2024-01-30T13:04:39;12.40;99.90
7366;DHT22;3723;52.220;8.792;2024-01-30T13:07:07;12.40;99.90
7366;DHT22;3723;52.220;8.792;2024-01-30T13:09:36;12.40;99.90
7366;DHT22;3723;52.220;8.792;2024-01-30T13:12:04;12.40;99.90
7366;DHT22;3723;52.220;8.792;2024-01-30T13:14:31;12.30;99.90
7366;DHT22;3723;52.220;8.792;2024-01-30T13:16:57;12.30;99.90
7366;DHT22;3723;52.220;8.792;2024-01-30T13:19:24;12.20;99.90
7366;DHT22;3723;52.220;8.792;2024-01-30T13:21:52;12.20;99.90
7366;DHT22;3723;52.220;8.792;2024-01-30T13:24:19;12.20;99.90
7366;DHT22;3723;52.220;8.792;2024-01-30T13:26:51;12.20;99.90
7366;DHT22;3723;52.220;8.792;2024-01-30T13:29:18;12.20;99.90
7366;DHT22;3723;52.220;8.792;2024-01-30T13:31:45;12.20;99.90
7366;DHT22;3723;52.220;8.792;2024-01-30T13:34:12;12.30;99.90
7366;DHT22;3723;52.220;8.792;2024-01-30T13:36:40;12.30;99.90
7366;DHT22;3723;52.220;8.792;2024-01-30T13:39:06;12.30;99.90
7366;DHT22;3723;52.220;8.792;2024-01-30T13:41:34;12.40;99.90
7366;DHT22;3723;52.220;8.792;2024-01-30T13:44:03;12.40;99.90
7366;DHT22;3723;52.220;8.792;2024-01-30T13:46:29;12.40;99.90
7366;DHT22;3723;52.220;8.792;2024-01-30T13:48:56;12.40;99.90
7366;DHT22;3723;52.220;8.792;2024-01-30T13:51:23;12.40;99.90
7366;DHT22;3723;52.220;8.792;2024-01-30T13:53:50;12.50;99.90
7366;DHT22;3723;52.220;8.792;2024-01-30T13:56:17;12.50;99.90
7366;DHT22;3723;52.220;8.792;2024-01-30T13:58:44;12.40;99.90
7366;DHT22;3723;52.220;8.792;2024-01-30T14:01:13;12.40;99.90
7366;DHT22;3723;52.220;8.792;2024-01-30T14:03:40;12.40;99.90
7366;DHT22;3723;52.220;8.792;2024-01-30T14:06:07;12.30;99.90
7366;DHT22;3723;52.220;8.792;2024-01-30T14:08:34;12.30;99.90
7366;DHT22;3723;52.220;8.792;2024-01-30T14:11:02;12.20;99.90
7366;DHT22;3723;52.220;8.792;2024-01-30T14:13:29;12.20;99.90
7366;DHT22;3723;52.220;8.792;2024-01-30T14:15:56;12.10;99.90
7366;DHT22;3723;52.220;8.792;2024-01-30T14:18:27;12.10;99.90
7366;DHT22;3723;52.220;8.792;2024-01-30T14:20:54;12.20;99.90
7366;DHT22;3723;52.220;8.792;2024-01-30T14:23:22;12.20;99.90
7366;DHT22;3723;52.220;8.792;2024-01-30T14:25:49;12.20;99.90
7366;DHT22;3723;52.220;8.792;2024-01-30T14:28:17;12.10;99.90
7366;DHT22;3723;52.220;8.792;2024-01-30T14:30:44;12.10;99.90
7366;DHT22;3723;52.220;8.792;2024-01-30T14:33:14;12.10;99.90
7366;DHT22;3723;52.220;8.792;2024-01-30T14:35:43;12.00;99.90
7366;DHT22;3723;52.220;8.792;2024-01-30T14:38:10;12.00;99.90
7366;DHT22;3723;52.220;8.792;2024-01-30T14:40:39;12.00;99.90
7366;DHT22;3723;52.220;8.792;2024-01-30T14:43:05;11.90;99.90
7366;DHT22;3723;52.220;8.792;2024-01-30T14:45:32;11.90;99.90
7366;DHT22;3723;52.220;8.792;2024-01-30T14:47:59;11.90;99.90
7366;DHT22;3723;52.220;8.792;2024-01-30T14:50:26;12.00;99.90
7366;DHT22;3723;52.220;8.792;2024-01-30T14:52:55;11.90;99.90
7366;DHT22;3723;52.220;8.792;2024-01-30T14:55:22;12.00;99.90
7366;DHT22;3723;52.220;8.792;2024-01-30T14:57:49;12.00;99.90
7366;DHT22;3723;52.220;8.792;2024-01-30T15:00:17;12.00;99.90
7366;DHT22;3723;52.220;8.792;2024-01-30T15:02:44;11.90;99.90
7366;DHT22;3723;52.220;8.792;2024-01-30T15:05:13;12.00;99.90
7366;DHT22;3723;52.220;8.792;2024-01-30T15:07:40;11.90;99.90
7366;DHT22;3723;52.220;8.792;2024-01-30T15:10:09;11.90;99.90
7366;DHT22;3723;52.220;8.792;2024-01-30T15:12:36;11.90;99.90
7366;DHT22;3723;52.220;8.792;2024-01-30T15:15:04;12.00;99.90
7366;DHT22;3723;52.220;8.792;2024-01-30T15:17:31;11.90;99.90
7366;DHT22;3723;52.220;8.792;2024-01-30T15:20:00;11.90;99.90
7366;DHT22;3723;52.220;8.792;2024-01-30T15:22:28;11.90;99.90
7366;DHT22;3723;52.220;8.792;2024-01-30T15:24:55;11.90;99.90
7366;DHT22;3723;52.220;8.792;2024-01-30T15:27:24;11.90;99.90
7366;DHT22;3723;52.220;8.792;2024-01-30T15:29:51;11.80;99.90
7366;DHT22;3723;52.220;8.792;2024-01-30T15:32:18;11.80;99.90
7366;DHT22;3723;52.220;8.792;2024-01-30T15:34:45;11.80;99.90
7366;DHT22;3723;52.220;8.792;2024-01-30T15:37:12;11.70;99.90
7366;DHT22;3723;52.220;8.792;2024-01-30T15:39:39;11.70;99.90
7366;DHT22;3723;52.220;8.792;2024-01-30T15:42:06;11.70;99.90
7366;DHT22;3723;52.220;8.792;2024-01-30T15:44:34;11.70;99.90
7366;DHT22;3723;52.220;8.792;2024-01-30T15:47:01;11.60;99.90
7366;DHT22;3723;52.220;8.792;2024-01-30T15:49:28;11.70;99.90
7366;DHT22;3723;52.220;8.792;2024-01-30T15:51:55;11.60;99.90
7366;DHT22;3723;52.220;8.792;2024-01-30T15:54:22;11.60;99.90
7366;DHT22;3723;52.220;8.792;2024-01-30T15:56:49;11.50;99.90
7366;DHT22;3723;52.220;8.792;2024-01-30T15:59:16;11.50;99.90
7366;DHT22;3723;52.220;8.792;2024-01-30T16:01:46;11.40;99.90
7366;DHT22;3723;52.220;8.792;2024-01-30T16:04:15;11.40;99.90
7366;DHT22;3723;52.220;8.792;2024-01-30T16:06:42;11.40;99.90
7366;DHT22;3723;52.220;8.792;2024-01-30T16:09:09;11.30;99.90
7366;DHT22;3723;52.220;8.792;2024-01-30T16:11:36;11.30;99.90